sensor_id;sensor_type;location;lat;lon;timestamp;temperature;humidity
11242;DHT22;5678;52.370;9.006;2023-03-23T00:00:54;11.10;99.90
11242;DHT22;5678;52.370;9.006;2023-03-23T00:03:21;11.10;99.90
11242;DHT22;5678;52.370;9.006;2023-03-23T00:05:50;11.50;99.90
11242;DHT22;5678;52.370;9.006;2023-03-23T00:08:18;11.00;99.90
11242;DHT22;5678;52.370;9.006;2023-03-23T00:10:48;11.00;99.90
11242;DHT22;5678;52.370;9.006;2023-03-23T00:13:18;11.00;99.90
11242;DHT22;5678;52.370;9.006;2023-03-23T00:15:46;11.00;99.90
11242;DHT22;5678;52.370;9.006;2023-03-23T00:18:15;11.00;99.90
11242;DHT22;5678;52.370;9.006;2023-03-23T00:20:48;10.90;99.90
11242;DHT22;5678;52.370;9.006;2023-03-23T00:23:15;10.90;99.90
11242;DHT22;5678;52.370;9.006;2023-03-23T00:25:46;10.90;99.90
11242;DHT22;5678;52.370;9.006;2023-03-23T00:28:13;11.40;99.90
11242;DHT22;5678;52.370;9.006;2023-03-23T00:30:40;11.60;99.90
11242;DHT22;5678;52.370;9.006;2023-03-23T00:33:11;10.80;99.90
11242;DHT22;5678;52.370;9.006;2023-03-23T00:35:41;10.80;99.90
11242;DHT22;5678;52.370;9.006;2023-03-23T00:38:10;10.70;99.90
11242;DHT22;5678;52.370;9.006;2023-03-23T00:40:36;10.70;99.90
11242;DHT22;5678;52.370;9.006;2023-03-23T00:43:03;10.70;99.90
11242;DHT22;5678;52.370;9.006;2023-03-23T00:45:30;10.60;99.90
11242;DHT22;5678;52.370;9.006;2023-03-23T00:48:00;11.10;99.90
11242;DHT22;5678;52.370;9.006;2023-03-23T00:50:29;10.60;99.90
11242;DHT22;5678;52.370;9.006;2023-03-23T00:52:58;10.50;99.90
11242;DHT22;5678;52.370;9.006;2023-03-23T00:55:25;10.50;99.90
11242;DHT22;5678;52.370;9.006;2023-03-23T00:57:52;10.50;99.90
11242;DHT22;5678;52.370;9.006;2023-03-23T01:00:19;11.50;99.90
11242;DHT22;5678;52.370;9.006;2023-03-23T01:02:46;10.50;99.90
11242;DHT22;5678;52.370;9.006;2023-03-23T01:05:13;12.30;99.90
11242;DHT22;5678;52.370;9.006;2023-03-23T01:07:41;10.50;99.90
11242;DHT22;5678;52.370;9.006;2023-03-23T01:10:12;10.50;99.90
11242;DHT22;5678;52.370;9.006;2023-03-23T01:12:42;10.50;99.90
11242;DHT22;5678;52.370;9.006;2023-03-23T01:15:14;10.50;99.90
11242;DHT22;5678;52.370;9.006;2023-03-23T01:17:42;10.50;99.90
11242;DHT22;5678;52.370;9.006;2023-03-23T01:20:09;10.60;99.90
11242;DHT22;5678;52.370;9.006;2023-03-23T01:22:36;10.50;99.90
11242;DHT22;5678;52.370;9.006;2023-03-23T01:25:04;10.50;99.90
11242;DHT22;5678;52.370;9.006;2023-03-23T01:27:32;10.60;99.90
11242;DHT22;5678;52.370;9.006;2023-03-23T01:29:59;10.60;99.90
11242;DHT22;5678;52.370;9.006;2023-03-23T01:32:26;10.90;99.90
11242;DHT22;5678;52.370;9.006;2023-03-23T01:34:53;10.60;99.90
11242;DHT22;5678;52.370;9.006;2023-03-23T01:37:20;10.60;99.90
11242;DHT22;5678;52.370;9.006;2023-03-23T01:39:52;11.50;99.90
11242;DHT22;5678;52.370;9.006;2023-03-23T01:42:21;10.70;99.90
11242;DHT22;5678;52.370;9.006;2023-03-23T01:45:25;10.60;99.90
11242;DHT22;5678;52.370;9.006;2023-03-23T01:47:59;10.60;99.90
11242;DHT22;5678;52.370;9.006;2023-03-23T01:50:30;10.60;99.90
11242;DHT22;5678;52.370;9.006;2023-03-23T01:53:01;10.70;99.90
11242;DHT22;5678;52.370;9.006;2023-03-23T01:55:32;10.70;99.90
11242;DHT22;5678;52.370;9.006;2023-03-23T01:57:59;10.70;99.90
11242;DHT22;5678;52.370;9.006;2023-03-23T02:00:28;11.50;99.90
11242;DHT22;5678;52.370;9.006;2023-03-23T02:02:56;10.70;99.90
11242;DHT22;5678;52.370;9.006;2023-03-23T02:05:27;12.50;99.90
11242;DHT22;5678;52.370;9.006;2023-03-23T02:07:58;10.70;99.90
11242;DHT22;5678;52.370;9.006;2023-03-23T02:10:29;10.70;99.90
11242;DHT22;5678;52.370;9.006;2023-03-23T02:12:56;10.70;99.90
11242;DHT22;5678;52.370;9.006;2023-03-23T02:15:25;10.70;99.90
11242;DHT22;5678;52.370;9.006;2023-03-23T02:18:03;10.70;99.90
11242;DHT22;5678;52.370;9.006;2023-03-23T02:26:47;10.70;99.90
11242;DHT22;5678;52.370;9.006;2023-03-23T02:29:47;11.60;99.90
11242;DHT22;5678;52.370;9.006;2023-03-23T02:32:39;10.80;99.90
11242;DHT22;5678;52.370;9.006;2023-03-23T02:35:12;10.80;99.90
11242;DHT22;5678;52.370;9.006;2023-03-23T02:37:47;10.80;99.90
11242;DHT22;5678;52.370;9.006;2023-03-23T02:40:18;10.90;99.90
11242;DHT22;5678;52.370;9.006;2023-03-23T02:42:50;10.90;99.90
11242;DHT22;5678;52.370;9.006;2023-03-23T02:45:20;10.90;99.90
11242;DHT22;5678;52.370;9.006;2023-03-23T02:47:50;10.90;99.90
11242;DHT22;5678;52.370;9.006;2023-03-23T02:50:21;12.80;99.90
11242;DHT22;5678;52.370;9.006;2023-03-23T02:52:49;10.90;99.90
11242;DHT22;5678;52.370;9.006;2023-03-23T02:55:18;11.60;99.90
11242;DHT22;5678;52.370;9.006;2023-03-23T02:57:46;10.90;99.90
11242;DHT22;5678;52.370;9.006;2023-03-23T03:00:16;10.90;99.90
11242;DHT22;5678;52.370;9.006;2023-03-23T03:02:45;10.90;99.90
11242;DHT22;5678;52.370;9.006;2023-03-23T03:05:26;12.70;99.90
11242;DHT22;5678;52.370;9.006;2023-03-23T03:08:11;10.80;99.90
11242;DHT22;5678;52.370;9.006;2023-03-23T03:10:46;10.90;99.90
11242;DHT22;5678;52.370;9.006;2023-03-23T03:13:22;11.70;99.90
11242;DHT22;5678;52.370;9.006;2023-03-23T03:15:55;10.80;99.90
11242;DHT22;5678;52.370;9.006;2023-03-23T03:18:27;10.80;99.90
11242;DHT22;5678;52.370;9.006;2023-03-23T03:20:59;10.90;99.90
11242;DHT22;5678;52.370;9.006;2023-03-23T03:23:27;10.90;99.90
11242;DHT22;5678;52.370;9.006;2023-03-23T03:25:55;10.90;99.90
11242;DHT22;5678;52.370;9.006;2023-03-23T03:28:24;10.90;99.90
11242;DHT22;5678;52.370;9.006;2023-03-23T03:30:54;10.90;99.90
11242;DHT22;5678;52.370;9.006;2023-03-23T03:33:22;11.20;99.90
11242;DHT22;5678;52.370;9.006;2023-03-23T03:35:51;10.90;99.90
11242;DHT22;5678;52.370;9.006;2023-03-23T03:38:21;11.00;99.90
11242;DHT22;5678;52.370;9.006;2023-03-23T03:40:48;10.90;99.90
11242;DHT22;5678;52.370;9.006;2023-03-23T03:43:15;11.40;99.90
11242;DHT22;5678;52.370;9.006;2023-03-23T03:45:43;10.90;99.90
11242;DHT22;5678;52.370;9.006;2023-03-23T03:48:10;11.00;99.90
11242;DHT22;5678;52.370;9.006;2023-03-23T03:50:37;11.00;99.90
11242;DHT22;5678;52.370;9.006;2023-03-23T03:53:04;11.20;99.90
11242;DHT22;5678;52.370;9.006;2023-03-23T03:55:32;11.00;99.90
11242;DHT22;5678;52.370;9.006;2023-03-23T03:58:01;10.90;99.90
11242;DHT22;5678;52.370;9.006;2023-03-23T04:00:28;11.40;99.90
11242;DHT22;5678;52.370;9.006;2023-03-23T04:02:55;11.90;99.90
11242;DHT22;5678;52.370;9.006;2023-03-23T04:05:22;10.90;99.90
11242;DHT22;5678;52.370;9.006;2023-03-23T04:07:50;10.90;99.90
11242;DHT22;5678;52.370;9.006;2023-03-23T04:10:19;10.90;99.90
11242;DHT22;5678;52.370;9.006;2023-03-23T04:12:48;10.90;99.90
11242;DHT22;5678;52.370;9.006;2023-03-23T04:15:16;10.90;99.90
11242;DHT22;5678;52.370;9.006;2023-03-23T04:17:43;10.90;99.90
11242;DHT22;5678;52.370;9.006;2023-03-23T04:20:10;10.90;99.90
11242;DHT22;5678;52.370;9.006;2023-03-23T04:22:40;10.90;99.90
11242;DHT22;5678;52.370;9.006;2023-03-23T04:25:10;10.90;99.90
11242;DHT22;5678;52.370;9.006;2023-03-23T04:27:38;10.90;99.90
11242;DHT22;5678;52.370;9.006;2023-03-23T04:30:07;10.90;99.90
11242;DHT22;5678;52.370;9.006;2023-03-23T04:32:34;10.90;99.90
11242;DHT22;5678;52.370;9.006;2023-03-23T04:35:01;10.80;99.90
11242;DHT22;5678;52.370;9.006;2023-03-23T04:37:28;10.80;99.90
11242;DHT22;5678;52.370;9.006;2023-03-23T04:40:00;10.80;99.90
11242;DHT22;5678;52.370;9.006;2023-03-23T04:42:32;10.80;99.90
11242;DHT22;5678;52.370;9.006;2023-03-23T04:45:00;11.70;99.90
11242;DHT22;5678;52.370;9.006;2023-03-23T04:47:32;10.80;99.90
11242;DHT22;5678;52.370;9.006;2023-03-23T04:50:00;10.80;99.90
11242;DHT22;5678;52.370;9.006;2023-03-23T04:52:26;10.70;99.90
11242;DHT22;5678;52.370;9.006;2023-03-23T04:54:53;10.70;99.90
11242;DHT22;5678;52.370;9.006;2023-03-23T04:57:21;10.70;99.90
11242;DHT22;5678;52.370;9.006;2023-03-23T04:59:48;10.70;99.90
11242;DHT22;5678;52.370;9.006;2023-03-23T05:02:15;10.70;99.90
11242;DHT22;5678;52.370;9.006;2023-03-23T05:04:44;10.70;99.90
11242;DHT22;5678;52.370;9.006;2023-03-23T05:07:11;10.80;99.90
11242;DHT22;5678;52.370;9.006;2023-03-23T05:09:38;10.80;99.90
11242;DHT22;5678;52.370;9.006;2023-03-23T05:12:06;10.80;99.90
11242;DHT22;5678;52.370;9.006;2023-03-23T05:14:33;10.80;99.90
11242;DHT22;5678;52.370;9.006;2023-03-23T05:17:01;10.80;99.90
11242;DHT22;5678;52.370;9.006;2023-03-23T05:19:28;10.80;99.90
11242;DHT22;5678;52.370;9.006;2023-03-23T05:21:58;10.80;99.90
11242;DHT22;5678;52.370;9.006;2023-03-23T05:24:29;10.80;99.90
11242;DHT22;5678;52.370;9.006;2023-03-23T05:26:58;10.80;99.90
11242;DHT22;5678;52.370;9.006;2023-03-23T05:29:25;10.80;99.90
11242;DHT22;5678;52.370;9.006;2023-03-23T05:31:55;10.80;99.90
11242;DHT22;5678;52.370;9.006;2023-03-23T05:34:25;10.80;99.90
11242;DHT22;5678;52.370;9.006;2023-03-23T05:36:52;10.90;99.90
11242;DHT22;5678;52.370;9.006;2023-03-23T05:39:22;10.90;99.90
11242;DHT22;5678;52.370;9.006;2023-03-23T05:41:49;10.90;99.90
11242;DHT22;5678;52.370;9.006;2023-03-23T05:44:16;10.90;99.90
11242;DHT22;5678;52.370;9.006;2023-03-23T05:46:43;10.90;99.90
11242;DHT22;5678;52.370;9.006;2023-03-23T05:49:10;10.90;99.90
11242;DHT22;5678;52.370;9.006;2023-03-23T05:51:37;10.90;99.90
11242;DHT22;5678;52.370;9.006;2023-03-23T05:54:04;10.90;99.90
11242;DHT22;5678;52.370;9.006;2023-03-23T05:56:32;11.00;99.90
11242;DHT22;5678;52.370;9.006;2023-03-23T05:58:59;11.40;99.90
11242;DHT22;5678;52.370;9.006;2023-03-23T06:01:28;11.00;99.90
11242;DHT22;5678;52.370;9.006;2023-03-23T06:03:55;11.00;99.90
11242;DHT22;5678;52.370;9.006;2023-03-23T06:06:32;11.10;99.90
11242;DHT22;5678;52.370;9.006;2023-03-23T06:09:00;11.10;99.90
11242;DHT22;5678;52.370;9.006;2023-03-23T06:11:27;11.20;99.90
11242;DHT22;5678;52.370;9.006;2023-03-23T06:13:55;11.90;99.90
11242;DHT22;5678;52.370;9.006;2023-03-23T06:16:22;11.20;99.90
11242;DHT22;5678;52.370;9.006;2023-03-23T06:18:49;11.30;99.90
11242;DHT22;5678;52.370;9.006;2023-03-23T06:21:16;11.30;99.90
11242;DHT22;5678;52.370;9.006;2023-03-23T06:23:44;11.30;99.90
11242;DHT22;5678;52.370;9.006;2023-03-23T06:26:13;11.40;99.90
11242;DHT22;5678;52.370;9.006;2023-03-23T06:28:42;11.40;99.90
11242;DHT22;5678;52.370;9.006;2023-03-23T06:31:10;11.40;99.90
11242;DHT22;5678;52.370;9.006;2023-03-23T06:33:38;11.40;99.90
11242;DHT22;5678;52.370;9.006;2023-03-23T06:36:07;11.40;99.90
11242;DHT22;5678;52.370;9.006;2023-03-23T06:38:34;11.60;99.90
11242;DHT22;5678;52.370;9.006;2023-03-23T06:41:01;11.50;99.90
11242;DHT22;5678;52.370;9.006;2023-03-23T06:43:28;11.50;99.90
11242;DHT22;5678;52.370;9.006;2023-03-23T06:45:57;11.50;99.90
11242;DHT22;5678;52.370;9.006;2023-03-23T06:48:26;11.60;99.90
11242;DHT22;5678;52.370;9.006;2023-03-23T06:50:53;11.70;99.90
11242;DHT22;5678;52.370;9.006;2023-03-23T06:53:20;11.70;99.90
11242;DHT22;5678;52.370;9.006;2023-03-23T06:55:47;11.80;99.90
11242;DHT22;5678;52.370;9.006;2023-03-23T06:58:14;11.80;99.90
11242;DHT22;5678;52.370;9.006;2023-03-23T07:00:40;11.90;99.90
11242;DHT22;5678;52.370;9.006;2023-03-23T07:03:08;12.00;99.90
11242;DHT22;5678;52.370;9.006;2023-03-23T07:05:36;12.10;99.90
11242;DHT22;5678;52.370;9.006;2023-03-23T07:08:04;12.10;99.90
11242;DHT22;5678;52.370;9.006;2023-03-23T07:10:31;12.20;99.90
11242;DHT22;5678;52.370;9.006;2023-03-23T07:12:58;12.30;99.90
11242;DHT22;5678;52.370;9.006;2023-03-23T07:15:26;12.30;99.90
11242;DHT22;5678;52.370;9.006;2023-03-23T07:17:53;12.40;99.90
11242;DHT22;5678;52.370;9.006;2023-03-23T07:20:21;12.40;99.90
11242;DHT22;5678;52.370;9.006;2023-03-23T07:22:49;12.40;99.90
11242;DHT22;5678;52.370;9.006;2023-03-23T07:25:16;12.40;99.90
11242;DHT22;5678;52.370;9.006;2023-03-23T07:27:44;12.70;99.90
11242;DHT22;5678;52.370;9.006;2023-03-23T07:30:12;12.90;99.90
11242;DHT22;5678;52.370;9.006;2023-03-23T07:32:40;13.10;99.90
11242;DHT22;5678;52.370;9.006;2023-03-23T07:35:07;13.30;99.90
11242;DHT22;5678;52.370;9.006;2023-03-23T07:37:34;13.40;99.90
11242;DHT22;5678;52.370;9.006;2023-03-23T07:40:04;13.40;99.90
11242;DHT22;5678;52.370;9.006;2023-03-23T07:42:41;13.50;99.90
11242;DHT22;5678;52.370;9.006;2023-03-23T07:45:09;13.40;99.90
11242;DHT22;5678;52.370;9.006;2023-03-23T07:47:36;13.60;99.90
11242;DHT22;5678;52.370;9.006;2023-03-23T07:50:04;13.90;99.90
11242;DHT22;5678;52.370;9.006;2023-03-23T07:52:32;13.90;99.90
11242;DHT22;5678;52.370;9.006;2023-03-23T07:54:59;14.10;99.90
11242;DHT22;5678;52.370;9.006;2023-03-23T07:57:28;14.20;99.90
11242;DHT22;5678;52.370;9.006;2023-03-23T07:59:55;14.10;99.90
11242;DHT22;5678;52.370;9.006;2023-03-23T08:02:22;14.20;99.90
11242;DHT22;5678;52.370;9.006;2023-03-23T08:04:49;14.10;99.90
11242;DHT22;5678;52.370;9.006;2023-03-23T08:07:16;14.10;99.90
11242;DHT22;5678;52.370;9.006;2023-03-23T08:09:44;14.00;99.90
11242;DHT22;5678;52.370;9.006;2023-03-23T08:12:12;14.00;99.90
11242;DHT22;5678;52.370;9.006;2023-03-23T08:14:40;13.90;99.90
11242;DHT22;5678;52.370;9.006;2023-03-23T08:17:08;13.90;99.90
11242;DHT22;5678;52.370;9.006;2023-03-23T08:19:35;13.80;99.90
11242;DHT22;5678;52.370;9.006;2023-03-23T08:22:03;13.80;99.90
11242;DHT22;5678;52.370;9.006;2023-03-23T08:24:30;13.80;99.90
11242;DHT22;5678;52.370;9.006;2023-03-23T08:26:58;14.00;99.90
11242;DHT22;5678;52.370;9.006;2023-03-23T08:29:25;13.90;99.90
11242;DHT22;5678;52.370;9.006;2023-03-23T08:31:53;13.90;99.90
11242;DHT22;5678;52.370;9.006;2023-03-23T08:34:20;14.50;99.90
11242;DHT22;5678;52.370;9.006;2023-03-23T08:36:48;13.70;99.90
11242;DHT22;5678;52.370;9.006;2023-03-23T08:39:17;13.60;99.90
11242;DHT22;5678;52.370;9.006;2023-03-23T08:41:44;13.60;99.90
11242;DHT22;5678;52.370;9.006;2023-03-23T08:44:11;13.50;99.90
11242;DHT22;5678;52.370;9.006;2023-03-23T08:46:38;13.40;99.90
11242;DHT22;5678;52.370;9.006;2023-03-23T08:49:07;13.40;99.90
11242;DHT22;5678;52.370;9.006;2023-03-23T08:51:34;13.40;99.90
11242;DHT22;5678;52.370;9.006;2023-03-23T08:54:02;12.20;99.90
11242;DHT22;5678;52.370;9.006;2023-03-23T08:56:29;13.30;99.90
11242;DHT22;5678;52.370;9.006;2023-03-23T08:58:56;13.30;99.90
11242;DHT22;5678;52.370;9.006;2023-03-23T09:01:23;13.20;99.90
11242;DHT22;5678;52.370;9.006;2023-03-23T09:03:50;13.30;99.90
11242;DHT22;5678;52.370;9.006;2023-03-23T09:06:18;13.30;99.90
11242;DHT22;5678;52.370;9.006;2023-03-23T09:08:45;13.40;99.90
11242;DHT22;5678;52.370;9.006;2023-03-23T09:11:13;13.50;99.90
11242;DHT22;5678;52.370;9.006;2023-03-23T09:13:40;13.60;99.90
11242;DHT22;5678;52.370;9.006;2023-03-23T09:16:08;13.70;99.90
11242;DHT22;5678;52.370;9.006;2023-03-23T09:18:35;13.80;99.90
11242;DHT22;5678;52.370;9.006;2023-03-23T09:21:03;14.10;99.90
11242;DHT22;5678;52.370;9.006;2023-03-23T09:23:32;13.70;99.90
11242;DHT22;5678;52.370;9.006;2023-03-23T09:26:00;13.70;99.90
11242;DHT22;5678;52.370;9.006;2023-03-23T09:28:28;13.70;99.90
11242;DHT22;5678;52.370;9.006;2023-03-23T09:30:56;13.60;99.90
11242;DHT22;5678;52.370;9.006;2023-03-23T09:33:24;13.40;99.90
11242;DHT22;5678;52.370;9.006;2023-03-23T09:35:52;13.40;99.90
11242;DHT22;5678;52.370;9.006;2023-03-23T09:38:19;13.40;99.90
11242;DHT22;5678;52.370;9.006;2023-03-23T09:40:51;13.40;99.90
11242;DHT22;5678;52.370;9.006;2023-03-23T09:43:44;13.40;99.90
11242;DHT22;5678;52.370;9.006;2023-03-23T09:46:30;13.40;99.90
11242;DHT22;5678;52.370;9.006;2023-03-23T09:49:04;13.50;99.90
11242;DHT22;5678;52.370;9.006;2023-03-23T09:51:41;13.40;99.90
11242;DHT22;5678;52.370;9.006;2023-03-23T09:54:20;13.40;99.90
11242;DHT22;5678;52.370;9.006;2023-03-23T09:56:50;13.90;99.90
11242;DHT22;5678;52.370;9.006;2023-03-23T09:59:22;14.00;99.90
11242;DHT22;5678;52.370;9.006;2023-03-23T10:01:52;13.70;99.90
11242;DHT22;5678;52.370;9.006;2023-03-23T10:04:27;13.50;99.90
11242;DHT22;5678;52.370;9.006;2023-03-23T10:06:58;13.60;99.90
11242;DHT22;5678;52.370;9.006;2023-03-23T10:09:26;14.00;99.90
11242;DHT22;5678;52.370;9.006;2023-03-23T10:12:02;13.60;99.90
11242;DHT22;5678;52.370;9.006;2023-03-23T10:14:43;13.70;99.90
11242;DHT22;5678;52.370;9.006;2023-03-23T10:17:15;13.70;99.90
11242;DHT22;5678;52.370;9.006;2023-03-23T10:19:48;13.90;99.90
11242;DHT22;5678;52.370;9.006;2023-03-23T10:22:22;14.00;99.90
11242;DHT22;5678;52.370;9.006;2023-03-23T10:25:07;14.30;99.90
11242;DHT22;5678;52.370;9.006;2023-03-23T10:27:45;14.50;99.90
11242;DHT22;5678;52.370;9.006;2023-03-23T10:30:19;14.80;99.90
11242;DHT22;5678;52.370;9.006;2023-03-23T10:32:51;14.90;99.90
11242;DHT22;5678;52.370;9.006;2023-03-23T10:35:23;14.90;99.90
11242;DHT22;5678;52.370;9.006;2023-03-23T10:37:55;14.80;99.90
11242;DHT22;5678;52.370;9.006;2023-03-23T10:40:27;14.60;99.90
11242;DHT22;5678;52.370;9.006;2023-03-23T10:42:57;14.40;99.90
11242;DHT22;5678;52.370;9.006;2023-03-23T10:45:34;14.20;1.00
11242;DHT22;5678;52.370;9.006;2023-03-23T10:48:11;13.80;99.90
11242;DHT22;5678;52.370;9.006;2023-03-23T10:50:41;13.80;1.00
11242;DHT22;5678;52.370;9.006;2023-03-23T10:53:14;13.50;99.90
11242;DHT22;5678;52.370;9.006;2023-03-23T10:55:42;13.30;99.90
11242;DHT22;5678;52.370;9.006;2023-03-23T10:58:13;13.20;99.90
11242;DHT22;5678;52.370;9.006;2023-03-23T11:00:48;13.10;99.90
11242;DHT22;5678;52.370;9.006;2023-03-23T11:03:34;13.00;99.90
11242;DHT22;5678;52.370;9.006;2023-03-23T11:06:03;13.10;99.90
11242;DHT22;5678;52.370;9.006;2023-03-23T11:08:34;12.90;99.90
11242;DHT22;5678;52.370;9.006;2023-03-23T11:11:09;12.80;99.90
11242;DHT22;5678;52.370;9.006;2023-03-23T11:13:41;12.60;99.90
11242;DHT22;5678;52.370;9.006;2023-03-23T11:16:10;12.50;99.90
11242;DHT22;5678;52.370;9.006;2023-03-23T11:18:39;12.40;99.90
11242;DHT22;5678;52.370;9.006;2023-03-23T11:21:11;12.20;99.90
11242;DHT22;5678;52.370;9.006;2023-03-23T11:23:40;12.10;99.90
11242;DHT22;5678;52.370;9.006;2023-03-23T11:26:14;11.80;99.90
11242;DHT22;5678;52.370;9.006;2023-03-23T11:28:46;11.70;99.90
11242;DHT22;5678;52.370;9.006;2023-03-23T11:31:16;11.60;99.90
11242;DHT22;5678;52.370;9.006;2023-03-23T11:33:51;11.60;99.90
11242;DHT22;5678;52.370;9.006;2023-03-23T11:36:19;11.60;99.90
11242;DHT22;5678;52.370;9.006;2023-03-23T11:38:53;11.80;99.90
11242;DHT22;5678;52.370;9.006;2023-03-23T11:41:43;11.90;99.90
11242;DHT22;5678;52.370;9.006;2023-03-23T11:44:12;12.10;99.90
11242;DHT22;5678;52.370;9.006;2023-03-23T11:46:53;12.20;99.90
11242;DHT22;5678;52.370;9.006;2023-03-23T11:49:32;12.20;99.90
11242;DHT22;5678;52.370;9.006;2023-03-23T11:52:08;12.30;99.90
11242;DHT22;5678;52.370;9.006;2023-03-23T11:54:41;12.40;99.90
11242;DHT22;5678;52.370;9.006;2023-03-23T11:57:11;12.60;99.90
11242;DHT22;5678;52.370;9.006;2023-03-23T11:59:40;12.60;99.90
11242;DHT22;5678;52.370;9.006;2023-03-23T12:02:23;12.70;99.90
11242;DHT22;5678;52.370;9.006;2023-03-23T12:05:03;12.70;99.90
11242;DHT22;5678;52.370;9.006;2023-03-23T12:07:46;12.60;99.90
11242;DHT22;5678;52.370;9.006;2023-03-23T12:10:24;12.60;99.90
11242;DHT22;5678;52.370;9.006;2023-03-23T12:13:01;12.70;99.90
11242;DHT22;5678;52.370;9.006;2023-03-23T12:15:34;12.60;99.90
11242;DHT22;5678;52.370;9.006;2023-03-23T12:18:12;12.50;99.90
11242;DHT22;5678;52.370;9.006;2023-03-23T12:20:49;12.40;99.90
11242;DHT22;5678;52.370;9.006;2023-03-23T12:23:23;12.40;99.90
11242;DHT22;5678;52.370;9.006;2023-03-23T12:26:10;12.30;99.90
11242;DHT22;5678;52.370;9.006;2023-03-23T12:31:44;12.20;99.90
11242;DHT22;5678;52.370;9.006;2023-03-23T12:34:20;12.10;99.90
11242;DHT22;5678;52.370;9.006;2023-03-23T12:37:08;12.10;99.90
11242;DHT22;5678;52.370;9.006;2023-03-23T12:42:40;12.20;99.90
11242;DHT22;5678;52.370;9.006;2023-03-23T12:45:21;12.10;99.90
11242;DHT22;5678;52.370;9.006;2023-03-23T12:47:56;12.10;99.90
11242;DHT22;5678;52.370;9.006;2023-03-23T12:50:28;12.00;99.90
11242;DHT22;5678;52.370;9.006;2023-03-23T12:53:08;12.00;99.90
11242;DHT22;5678;52.370;9.006;2023-03-23T12:55:42;11.90;99.90
11242;DHT22;5678;52.370;9.006;2023-03-23T12:58:17;12.50;99.90
11242;DHT22;5678;52.370;9.006;2023-03-23T13:00:55;11.90;99.90
11242;DHT22;5678;52.370;9.006;2023-03-23T13:03:38;11.80;99.90
11242;DHT22;5678;52.370;9.006;2023-03-23T13:06:12;11.90;99.90
11242;DHT22;5678;52.370;9.006;2023-03-23T13:08:45;12.00;99.90
11242;DHT22;5678;52.370;9.006;2023-03-23T13:11:20;12.10;99.90
11242;DHT22;5678;52.370;9.006;2023-03-23T13:13:51;12.20;99.90
11242;DHT22;5678;52.370;9.006;2023-03-23T13:16:27;12.10;99.90
11242;DHT22;5678;52.370;9.006;2023-03-23T13:19:03;12.10;99.90
11242;DHT22;5678;52.370;9.006;2023-03-23T13:21:32;12.40;99.90
11242;DHT22;5678;52.370;9.006;2023-03-23T13:24:03;12.20;99.90
11242;DHT22;5678;52.370;9.006;2023-03-23T13:26:31;12.20;99.90
11242;DHT22;5678;52.370;9.006;2023-03-23T13:29:00;12.30;99.90
11242;DHT22;5678;52.370;9.006;2023-03-23T13:31:30;12.40;99.90
11242;DHT22;5678;52.370;9.006;2023-03-23T13:34:04;12.60;99.90
11242;DHT22;5678;52.370;9.006;2023-03-23T13:36:35;12.70;99.90
11242;DHT22;5678;52.370;9.006;2023-03-23T13:39:04;12.80;99.90
11242;DHT22;5678;52.370;9.006;2023-03-23T13:42:17;12.90;99.90
11242;DHT22;5678;52.370;9.006;2023-03-23T13:44:56;13.00;99.90
11242;DHT22;5678;52.370;9.006;2023-03-23T13:47:37;13.10;99.90
11242;DHT22;5678;52.370;9.006;2023-03-23T13:50:25;13.20;99.90
11242;DHT22;5678;52.370;9.006;2023-03-23T13:52:58;13.30;99.90
11242;DHT22;5678;52.370;9.006;2023-03-23T13:55:42;13.40;99.90
11242;DHT22;5678;52.370;9.006;2023-03-23T13:58:11;13.40;99.90
11242;DHT22;5678;52.370;9.006;2023-03-23T14:00:47;13.40;99.90
11242;DHT22;5678;52.370;9.006;2023-03-23T14:03:18;13.40;99.90
11242;DHT22;5678;52.370;9.006;2023-03-23T14:05:49;13.60;99.90
11242;DHT22;5678;52.370;9.006;2023-03-23T14:08:24;13.60;99.90
11242;DHT22;5678;52.370;9.006;2023-03-23T14:10:54;13.90;99.90
11242;DHT22;5678;52.370;9.006;2023-03-23T14:13:28;13.90;99.90
11242;DHT22;5678;52.370;9.006;2023-03-23T14:15:58;13.90;99.90
11242;DHT22;5678;52.370;9.006;2023-03-23T14:18:30;13.90;99.90
11242;DHT22;5678;52.370;9.006;2023-03-23T14:20:59;13.80;99.90
11242;DHT22;5678;52.370;9.006;2023-03-23T14:23:27;13.70;99.90
11242;DHT22;5678;52.370;9.006;2023-03-23T14:25:59;13.60;99.90
11242;DHT22;5678;52.370;9.006;2023-03-23T14:28:36;13.60;99.90
11242;DHT22;5678;52.370;9.006;2023-03-23T14:31:04;13.60;99.90
11242;DHT22;5678;52.370;9.006;2023-03-23T14:33:31;13.50;99.90
11242;DHT22;5678;52.370;9.006;2023-03-23T14:36:00;13.50;99.90
11242;DHT22;5678;52.370;9.006;2023-03-23T14:38:27;13.60;99.90
11242;DHT22;5678;52.370;9.006;2023-03-23T14:41:02;13.60;99.90
11242;DHT22;5678;52.370;9.006;2023-03-23T14:43:30;13.60;99.90
11242;DHT22;5678;52.370;9.006;2023-03-23T14:46:02;13.60;99.90
11242;DHT22;5678;52.370;9.006;2023-03-23T14:48:32;13.70;99.90
11242;DHT22;5678;52.370;9.006;2023-03-23T14:51:01;13.70;99.90
11242;DHT22;5678;52.370;9.006;2023-03-23T14:53:33;13.70;99.90
11242;DHT22;5678;52.370;9.006;2023-03-23T14:56:02;13.80;99.90
11242;DHT22;5678;52.370;9.006;2023-03-23T14:58:30;13.90;99.90
11242;DHT22;5678;52.370;9.006;2023-03-23T15:00:59;13.90;99.90
11242;DHT22;5678;52.370;9.006;2023-03-23T15:03:30;13.70;99.90
11242;DHT22;5678;52.370;9.006;2023-03-23T15:06:02;13.60;99.90
11242;DHT22;5678;52.370;9.006;2023-03-23T15:08:33;13.60;99.90
11242;DHT22;5678;52.370;9.006;2023-03-23T15:11:06;13.60;99.90
11242;DHT22;5678;52.370;9.006;2023-03-23T15:13:34;13.60;99.90
11242;DHT22;5678;52.370;9.006;2023-03-23T15:16:11;13.60;99.90
11242;DHT22;5678;52.370;9.006;2023-03-23T15:18:39;13.60;99.90
11242;DHT22;5678;52.370;9.006;2023-03-23T15:21:11;13.50;99.90
11242;DHT22;5678;52.370;9.006;2023-03-23T15:23:42;13.40;99.90
11242;DHT22;5678;52.370;9.006;2023-03-23T15:26:25;13.40;99.90
11242;DHT22;5678;52.370;9.006;2023-03-23T15:29:02;13.40;99.90
11242;DHT22;5678;52.370;9.006;2023-03-23T15:31:30;13.40;99.90
11242;DHT22;5678;52.370;9.006;2023-03-23T15:34:00;13.30;99.90
11242;DHT22;5678;52.370;9.006;2023-03-23T15:36:32;13.30;99.90
11242;DHT22;5678;52.370;9.006;2023-03-23T15:38:59;13.20;99.90
11242;DHT22;5678;52.370;9.006;2023-03-23T15:41:28;13.10;99.90
11242;DHT22;5678;52.370;9.006;2023-03-23T15:43:56;13.10;99.90
11242;DHT22;5678;52.370;9.006;2023-03-23T15:46:25;13.00;99.90
11242;DHT22;5678;52.370;9.006;2023-03-23T15:48:54;12.90;99.90
11242;DHT22;5678;52.370;9.006;2023-03-23T15:51:33;12.90;99.90
11242;DHT22;5678;52.370;9.006;2023-03-23T15:54:09;12.80;99.90
11242;DHT22;5678;52.370;9.006;2023-03-23T15:56:38;12.70;99.90
11242;DHT22;5678;52.370;9.006;2023-03-23T15:59:06;12.70;99.90
11242;DHT22;5678;52.370;9.006;2023-03-23T16:01:36;12.70;99.90
11242;DHT22;5678;52.370;9.006;2023-03-23T16:04:07;12.70;99.90
11242;DHT22;5678;52.370;9.006;2023-03-23T16:06:37;12.80;99.90
11242;DHT22;5678;52.370;9.006;2023-03-23T16:09:06;12.80;99.90
11242;DHT22;5678;52.370;9.006;2023-03-23T16:11:36;12.80;99.90
11242;DHT22;5678;52.370;9.006;2023-03-23T16:14:04;12.90;99.90
11242;DHT22;5678;52.370;9.006;2023-03-23T16:16:34;12.70;99.90
11242;DHT22;5678;52.370;9.006;2023-03-23T16:19:04;12.70;99.90
11242;DHT22;5678;52.370;9.006;2023-03-23T16:21:32;12.70;99.90